Time;durP1;ratioP1;P1;durP2;ratioP2;P2;SDS_P1;SDS_P2;PMS_P1;PMS_P2;Temp;Humidity;BMP_temperature;BMP_pressure;BME280_temperature;BME280_humidity;BME280_pressure;Samples;Min_cycle;Max_cycle;Signal;HPM_P1;HPM_P2
2021/09/03 00:00:02;;;;;;;15.52;4.80;;;14.30;99.90;;;;;;5000096;28;20084;-69
2021/09/03 00:02:28;;;;;;;19.35;5.18;;;14.30;99.90;;;;;;5005246;28;20117;-69
2021/09/03 00:04:54;;;;;;;12.23;4.78;;;14.30;99.90;;;;;;4999428;28;20117;-69
2021/09/03 00:07:19;;;;;;;12.13;5.55;;;14.30;99.90;;;;;;4982006;28;20030;-70
2021/09/03 00:09:45;;;;;;;15.20;5.38;;;14.30;99.90;;;;;;5003000;28;20129;-69
2021/09/03 00:12:10;;;;;;;11.88;4.85;;;14.20;99.90;;;;;;4999609;28;20026;-69
2021/09/03 00:14:36;;;;;;;13.43;5.50;;;14.20;99.90;;;;;;5001989;28;20859;-69
2021/09/03 00:17:02;;;;;;;18.65;6.03;;;14.20;99.90;;;;;;5000245;28;20646;-69
2021/09/03 00:19:28;;;;;;;11.95;5.43;;;14.20;99.90;;;;;;5000683;28;20089;-69
2021/09/03 00:21:54;;;;;;;14.50;5.25;;;14.20;99.90;;;;;;5001162;28;20559;-69
2021/09/03 00:24:20;;;;;;;14.35;5.22;;;14.20;99.90;;;;;;4999695;28;20045;-71
2021/09/03 00:26:46;;;;;;;12.48;5.82;;;14.20;99.90;;;;;;5002110;28;20728;-68
2021/09/03 00:29:12;;;;;;;12.25;4.97;;;14.20;99.90;;;;;;4999285;28;20120;-69
2021/09/03 00:31:37;;;;;;;14.20;5.32;;;14.10;99.90;;;;;;4984486;28;20033;-69
2021/09/03 00:34:03;;;;;;;12.65;4.88;;;14.10;99.90;;;;;;4999916;28;20042;-69
2021/09/03 00:36:28;;;;;;;15.27;5.70;;;14.10;99.90;;;;;;4982695;28;20049;-69
2021/09/03 00:38:54;;;;;;;12.55;5.18;;;14.10;99.90;;;;;;5001040;28;20045;-69
2021/09/03 00:41:19;;;;;;;21.13;5.45;;;14.10;99.90;;;;;;5003136;28;20042;-69
2021/09/03 00:43:46;;;;;;;18.92;6.38;;;14.10;99.90;;;;;;5001892;28;20038;-70
2021/09/03 00:46:12;;;;;;;14.63;5.82;;;14.10;99.90;;;;;;4984645;28;20034;-69
2021/09/03 00:48:37;;;;;;;13.82;5.38;;;14.10;99.90;;;;;;4998619;28;20505;-69
2021/09/03 00:51:03;;;;;;;14.70;5.93;;;14.10;99.90;;;;;;5001813;28;20045;-69
2021/09/03 00:53:30;;;;;;;19.17;5.38;;;14.10;99.90;;;;;;4981782;28;20049;-69
2021/09/03 00:55:56;;;;;;;14.07;5.85;;;14.00;99.90;;;;;;5000166;28;20088;-69
2021/09/03 00:58:22;;;;;;;13.10;5.20;;;14.00;99.90;;;;;;5000607;28;20045;-69
2021/09/03 01:00:49;;;;;;;18.60;6.03;;;14.00;99.90;;;;;;5003759;28;20042;-68
2021/09/03 01:03:15;;;;;;;16.75;6.22;;;14.00;99.90;;;;;;5001463;28;20044;-69
2021/09/03 01:05:41;;;;;;;14.02;5.82;;;14.00;99.90;;;;;;4997776;28;20056;-69
2021/09/03 01:08:07;;;;;;;16.17;5.57;;;14.00;99.90;;;;;;4998683;28;20467;-69
2021/09/03 01:10:33;;;;;;;13.38;5.38;;;13.90;99.90;;;;;;5000813;28;20101;-70
2021/09/03 01:12:59;;;;;;;13.88;5.60;;;14.00;99.90;;;;;;4999134;28;20426;-69
2021/09/03 01:15:24;;;;;;;16.13;5.47;;;13.90;99.90;;;;;;5000091;28;20026;-69
2021/09/03 01:17:50;;;;;;;17.75;6.20;;;13.90;99.90;;;;;;4999800;28;20064;-69
2021/09/03 01:20:16;;;;;;;14.75;5.60;;;13.90;99.90;;;;;;4998885;28;20042;-69
2021/09/03 01:22:41;;;;;;;20.92;6.22;;;13.90;99.90;;;;;;5001286;28;20074;-69
2021/09/03 01:25:08;;;;;;;12.77;5.47;;;13.90;99.90;;;;;;4980553;28;20053;-69
2021/09/03 01:27:34;;;;;;;15.98;5.43;;;13.90;99.90;;;;;;5000693;28;20464;-69
2021/09/03 01:30:00;;;;;;;14.30;5.65;;;13.90;99.90;;;;;;4998922;28;20041;-69
2021/09/03 01:32:25;;;;;;;16.30;6.03;;;13.80;99.90;;;;;;5000022;28;20630;-69
2021/09/03 01:34:51;;;;;;;12.52;5.28;;;13.80;99.90;;;;;;4999669;28;20030;-69
2021/09/03 01:37:16;;;;;;;15.50;6.18;;;13.80;99.90;;;;;;4983529;28;20092;-69
2021/09/03 01:39:42;;;;;;;17.38;6.63;;;13.80;99.90;;;;;;4985398;28;20030;-69
2021/09/03 01:42:08;;;;;;;18.05;6.35;;;13.80;99.90;;;;;;5000608;28;20050;-69
2021/09/03 01:44:33;;;;;;;14.23;5.40;;;13.80;99.90;;;;;;4997902;28;20034;-69
2021/09/03 01:46:59;;;;;;;19.10;6.03;;;13.80;99.90;;;;;;4982597;28;20042;-69
2021/09/03 01:49:25;;;;;;;18.23;5.78;;;13.80;99.90;;;;;;4997874;28;20026;-69
2021/09/03 01:51:50;;;;;;;21.30;6.78;;;13.80;99.90;;;;;;4999432;28;20029;-70
2021/09/03 01:54:17;;;;;;;18.65;5.60;;;13.80;99.90;;;;;;4999009;28;20735;-69
2021/09/03 01:56:43;;;;;;;18.55;6.05;;;13.80;99.90;;;;;;4999677;28;20049;-70
2021/09/03 01:59:09;;;;;;;18.85;5.55;;;13.80;99.90;;;;;;4998079;28;20057;-69
2021/09/03 02:01:35;;;;;;;21.02;6.68;;;13.70;99.90;;;;;;5003874;28;20483;-69
2021/09/03 02:04:01;;;;;;;15.25;6.00;;;13.70;99.90;;;;;;5000849;28;20041;-69
2021/09/03 02:06:26;;;;;;;18.80;5.97;;;13.70;99.90;;;;;;4998515;28;20117;-69
2021/09/03 02:08:52;;;;;;;16.63;6.57;;;13.70;99.90;;;;;;4999238;28;20415;-69
2021/09/03 02:11:18;;;;;;;20.92;5.82;;;13.70;99.90;;;;;;4999611;28;20503;-69
2021/09/03 02:13:43;;;;;;;18.33;6.32;;;13.70;99.90;;;;;;4997255;28;20031;-70
2021/09/03 02:16:09;;;;;;;15.43;6.43;;;13.70;99.90;;;;;;4999564;28;20136;-69
2021/09/03 02:18:35;;;;;;;19.25;6.15;;;13.70;99.90;;;;;;4997567;28;20038;-68
2021/09/03 02:21:01;;;;;;;14.38;6.18;;;13.60;99.90;;;;;;4983053;28;20683;-69
2021/09/03 02:23:26;;;;;;;16.92;6.25;;;13.60;99.90;;;;;;4980810;28;20039;-69
2021/09/03 02:25:52;;;;;;;17.63;6.47;;;13.60;99.90;;;;;;5000922;28;20026;-69
2021/09/03 02:28:18;;;;;;;19.27;7.00;;;13.60;99.90;;;;;;5010795;28;20037;-68
2021/09/03 02:30:45;;;;;;;14.57;6.63;;;13.60;99.90;;;;;;5007573;28;20029;-70
2021/09/03 02:33:11;;;;;;;16.15;6.82;;;13.60;99.90;;;;;;4993310;28;20398;-69
2021/09/03 02:35:37;;;;;;;13.93;6.38;;;13.60;99.90;;;;;;5009407;28;20030;-69
2021/09/03 02:38:03;;;;;;;19.58;6.70;;;13.60;99.90;;;;;;5006266;28;20494;-70
2021/09/03 02:40:29;;;;;;;18.05;6.80;;;13.70;99.90;;;;;;5006595;28;20058;-69
2021/09/03 02:42:55;;;;;;;20.88;6.43;;;13.60;99.90;;;;;;5010093;28;21410;-69
2021/09/03 02:45:21;;;;;;;17.73;6.65;;;13.60;99.90;;;;;;5006831;28;20097;-68
2021/09/03 02:47:47;;;;;;;20.08;6.22;;;13.50;99.90;;;;;;5005772;28;20095;-69
2021/09/03 02:50:13;;;;;;;20.17;7.50;;;13.50;99.90;;;;;;5009627;28;20534;-68
2021/09/03 02:52:39;;;;;;;27.27;6.75;;;13.50;99.90;;;;;;4990266;28;20052;-68
2021/09/03 02:55:05;;;;;;;16.15;7.07;;;13.50;99.90;;;;;;4988727;28;20410;-69
2021/09/03 02:57:31;;;;;;;20.73;6.72;;;13.50;99.90;;;;;;5011455;28;20168;-69
2021/09/03 02:59:57;;;;;;;19.15;6.97;;;13.50;99.90;;;;;;5007119;28;20125;-69
2021/09/03 03:02:22;;;;;;;22.33;6.78;;;13.60;99.90;;;;;;5006479;28;20034;-69
2021/09/03 03:04:48;;;;;;;22.70;6.95;;;13.50;99.90;;;;;;4988110;28;20041;-68
2021/09/03 03:07:13;;;;;;;19.92;6.60;;;13.50;99.90;;;;;;5007250;28;20121;-69
2021/09/03 03:09:39;;;;;;;19.85;7.80;;;13.50;99.90;;;;;;4989508;28;20045;-69
2021/09/03 03:12:05;;;;;;;21.33;7.07;;;13.50;99.90;;;;;;5004639;28;20517;-70
2021/09/03 03:14:34;;;;;;;20.20;7.15;;;13.50;99.90;;;;;;5006660;28;20406;-69
2021/09/03 03:17:03;;;;;;;16.98;7.10;;;13.50;99.90;;;;;;5005465;28;20038;-69
2021/09/03 03:19:30;;;;;;;17.13;6.60;;;13.50;99.90;;;;;;5004068;28;20039;-69
2021/09/03 03:21:57;;;;;;;18.98;7.15;;;13.40;99.90;;;;;;5006926;28;20061;-69
2021/09/03 03:24:23;;;;;;;16.65;6.68;;;13.40;99.90;;;;;;5005571;28;20046;-69
2021/09/03 03:26:49;;;;;;;17.85;7.80;;;13.40;99.90;;;;;;5007020;28;20029;-68
2021/09/03 03:29:15;;;;;;;21.73;7.03;;;13.40;99.90;;;;;;4987385;28;20034;-69
2021/09/03 03:31:41;;;;;;;20.27;7.30;;;13.40;99.90;;;;;;5008421;28;20034;-69
2021/09/03 03:34:07;;;;;;;17.25;6.88;;;13.40;99.90;;;;;;5006025;28;20058;-70
2021/09/03 03:36:33;;;;;;;16.50;6.97;;;13.40;99.90;;;;;;5004875;28;20135;-69
2021/09/03 03:38:58;;;;;;;24.92;8.10;;;13.30;99.90;;;;;;5005074;28;20049;-69
2021/09/03 03:41:24;;;;;;;21.05;7.53;;;13.30;99.90;;;;;;5008639;28;20050;-69
2021/09/03 03:43:50;;;;;;;17.00;6.57;;;13.30;99.90;;;;;;5003715;28;20044;-69
2021/09/03 03:46:15;;;;;;;25.80;8.02;;;13.30;99.90;;;;;;5007010;28;20037;-69
2021/09/03 03:48:41;;;;;;;19.70;7.25;;;13.30;99.90;;;;;;5006855;28;20080;-69
2021/09/03 03:51:07;;;;;;;20.27;7.32;;;13.30;99.90;;;;;;5004636;28;20064;-69
2021/09/03 03:53:33;;;;;;;25.33;7.32;;;13.30;99.90;;;;;;5002770;28;20041;-69
2021/09/03 03:55:58;;;;;;;16.42;7.30;;;13.20;99.90;;;;;;5004813;28;20493;-69
2021/09/03 03:58:24;;;;;;;17.50;8.38;;;13.20;99.90;;;;;;5007152;28;20576;-69
2021/09/03 04:00:49;;;;;;;22.73;7.72;;;13.30;99.90;;;;;;5008403;28;20041;-69
2021/09/03 04:03:15;;;;;;;18.55;6.95;;;13.20;99.90;;;;;;5005620;28;20796;-70
2021/09/03 04:05:41;;;;;;;17.92;8.10;;;13.20;99.90;;;;;;4988919;28;20026;-69
2021/09/03 04:08:07;;;;;;;21.13;7.13;;;13.20;99.90;;;;;;5005709;28;20054;-71
2021/09/03 04:10:33;;;;;;;20.55;7.47;;;13.20;99.90;;;;;;4988641;28;20045;-69
2021/09/03 04:12:59;;;;;;;19.63;7.55;;;13.20;99.90;;;;;;5007470;28;20092;-69
2021/09/03 04:15:25;;;;;;;25.08;8.10;;;13.20;99.90;;;;;;5005572;28;20117;-69
2021/09/03 04:17:50;;;;;;;21.42;8.05;;;13.20;99.90;;;;;;5004312;28;20171;-69
2021/09/03 04:20:17;;;;;;;22.95;7.88;;;13.10;99.90;;;;;;5006333;28;20064;-70
2021/09/03 04:22:43;;;;;;;21.50;8.32;;;13.20;99.90;;;;;;4988378;28;20022;-69
2021/09/03 04:25:09;;;;;;;20.63;8.02;;;13.10;99.90;;;;;;5005876;28;20048;-69
2021/09/03 04:27:36;;;;;;;20.50;7.68;;;13.10;99.90;;;;;;5005690;28;20108;-69
2021/09/03 04:30:03;;;;;;;21.88;8.50;;;13.10;99.90;;;;;;5008000;28;20030;-69
2021/09/03 04:32:28;;;;;;;24.52;8.63;;;13.10;99.90;;;;;;5004329;28;20066;-69
2021/09/03 04:34:54;;;;;;;23.25;8.85;;;13.10;99.90;;;;;;5004723;28;20456;-69
2021/09/03 04:37:19;;;;;;;32.67;10.10;;;13.10;99.90;;;;;;5008413;28;20888;-70
2021/09/03 04:39:45;;;;;;;23.58;8.52;;;13.10;99.90;;;;;;5010417;28;20030;-69
2021/09/03 04:42:11;;;;;;;23.17;8.93;;;13.00;99.90;;;;;;5007037;28;20068;-69
2021/09/03 04:44:36;;;;;;;25.60;9.23;;;13.00;99.90;;;;;;5007228;28;20485;-69
2021/09/03 04:47:02;;;;;;;19.25;7.75;;;13.10;99.90;;;;;;5006630;28;20462;-69
2021/09/03 04:49:28;;;;;;;22.00;7.65;;;13.00;99.90;;;;;;5002777;28;20117;-68
2021/09/03 04:51:53;;;;;;;21.45;8.50;;;13.00;99.90;;;;;;5009889;28;20049;-69
2021/09/03 04:54:19;;;;;;;21.88;8.80;;;13.00;99.90;;;;;;4986347;28;20117;-69
2021/09/03 04:56:44;;;;;;;20.77;9.00;;;13.00;99.90;;;;;;5003990;28;20372;-69
2021/09/03 04:59:10;;;;;;;21.77;8.50;;;13.00;99.90;;;;;;5006548;28;20056;-69
2021/09/03 05:01:36;;;;;;;24.65;8.40;;;13.10;99.90;;;;;;5004689;28;20108;-69
2021/09/03 05:04:01;;;;;;;19.80;7.82;;;13.00;99.90;;;;;;5005047;28;20402;-69
2021/09/03 05:06:27;;;;;;;20.95;8.48;;;13.00;99.90;;;;;;5004636;28;20397;-69
2021/09/03 05:08:52;;;;;;;21.45;8.20;;;13.00;99.90;;;;;;5004991;28;20494;-69
2021/09/03 05:11:18;;;;;;;20.00;7.80;;;13.00;99.90;;;;;;5002604;28;20173;-70
2021/09/03 05:13:43;;;;;;;17.45;7.57;;;13.00;99.90;;;;;;5007555;28;20121;-69
2021/09/03 05:16:09;;;;;;;21.70;8.70;;;13.10;99.90;;;;;;5005153;28;20042;-69
2021/09/03 05:18:35;;;;;;;22.95;7.97;;;13.10;99.90;;;;;;5004717;28;20076;-69
2021/09/03 05:21:00;;;;;;;19.13;8.07;;;13.20;99.90;;;;;;5005992;28;20506;-69
2021/09/03 05:23:26;;;;;;;26.13;8.43;;;13.10;99.90;;;;;;4987628;28;20145;-70
2021/09/03 05:25:52;;;;;;;27.20;8.15;;;13.10;99.90;;;;;;5005260;28;20045;-69
2021/09/03 05:28:17;;;;;;;24.13;9.45;;;13.10;99.90;;;;;;4987650;28;20061;-69
2021/09/03 05:30:43;;;;;;;22.08;8.25;;;13.10;99.90;;;;;;5002691;28;20036;-69
2021/09/03 05:33:09;;;;;;;21.80;7.70;;;13.10;99.90;;;;;;4984326;28;20120;-69
2021/09/03 05:35:35;;;;;;;24.20;8.45;;;13.10;99.90;;;;;;4999364;28;20073;-70
2021/09/03 05:38:04;;;;;;;19.63;7.85;;;13.20;99.90;;;;;;5006576;28;20508;-69
2021/09/03 05:40:31;;;;;;;22.00;7.95;;;13.20;99.90;;;;;;5006512;28;20034;-69
2021/09/03 05:42:56;;;;;;;19.45;7.75;;;13.20;99.90;;;;;;5003061;28;20044;-69
2021/09/03 05:45:22;;;;;;;23.02;8.35;;;13.30;99.90;;;;;;5004892;28;20094;-69
2021/09/03 05:47:48;;;;;;;24.83;9.32;;;13.30;99.90;;;;;;5005401;28;20026;-69
2021/09/03 05:50:15;;;;;;;23.42;7.68;;;13.40;99.90;;;;;;5002531;28;20130;-69
2021/09/03 05:52:41;;;;;;;19.50;7.97;;;13.40;99.90;;;;;;5005437;28;20030;-69
2021/09/03 05:55:07;;;;;;;26.35;8.23;;;13.50;99.90;;;;;;4988529;28;20079;-69
2021/09/03 05:57:33;;;;;;;24.08;7.53;;;13.60;99.90;;;;;;4986515;28;20034;-70
2021/09/03 05:59:59;;;;;;;17.17;8.02;;;13.70;99.90;;;;;;5005662;28;20041;-69
2021/09/03 06:02:25;;;;;;;23.67;8.20;;;13.70;99.90;;;;;;5007835;28;20022;-69
2021/09/03 06:04:51;;;;;;;23.17;7.90;;;13.80;99.90;;;;;;5009162;28;20402;-69
2021/09/03 06:07:17;;;;;;;16.35;8.20;;;13.90;99.90;;;;;;5007634;28;20060;-69
2021/09/03 06:09:42;;;;;;;16.33;7.53;;;14.00;99.90;;;;;;5008607;28;20030;-69
2021/09/03 06:12:08;;;;;;;21.27;8.85;;;14.20;99.90;;;;;;5008796;28;20022;-69
2021/09/03 06:14:34;;;;;;;19.10;6.85;;;14.30;99.90;;;;;;5007758;28;20111;-69
2021/09/03 06:17:00;;;;;;;15.95;7.18;;;14.50;99.90;;;;;;5008589;28;20030;-69
2021/09/03 06:19:25;;;;;;;23.05;8.50;;;14.70;99.90;;;;;;5009799;28;20026;-68
2021/09/03 06:21:51;;;;;;;15.25;6.78;;;14.90;99.90;;;;;;5007835;28;20140;-69
2021/09/03 06:24:32;;;;;;;15.85;7.00;;;15.30;99.90;;;;;;5006850;28;20038;-69
2021/09/03 06:27:03;;;;;;;12.95;5.05;;;15.60;99.90;;;;;;5009792;28;20038;-69
2021/09/03 06:29:45;;;;;;;15.93;5.75;;;15.90;99.90;;;;;;5009329;28;20049;-69
2021/09/03 06:32:18;;;;;;;15.57;5.90;;;16.10;99.90;;;;;;5005628;28;20657;-69
2021/09/03 06:34:52;;;;;;;16.48;6.13;;;16.20;99.90;;;;;;5008545;28;20062;-69
2021/09/03 06:37:18;;;;;;;14.35;5.00;;;16.50;99.90;;;;;;5004553;28;20038;-71
2021/09/03 06:39:44;;;;;;;10.65;5.25;;;16.90;99.90;;;;;;5007644;28;20037;-69
2021/09/03 06:42:10;;;;;;;12.73;5.43;;;17.30;99.90;;;;;;5001096;28;20038;-70
2021/09/03 06:44:36;;;;;;;15.35;5.78;;;17.80;99.90;;;;;;5002743;28;20096;-69
2021/09/03 06:47:03;;;;;;;12.32;5.82;;;18.30;99.90;;;;;;5001983;28;20029;-69
2021/09/03 06:49:29;;;;;;;13.23;5.50;;;18.70;99.90;;;;;;5001976;28;20041;-70
2021/09/03 06:51:55;;;;;;;13.65;5.07;;;18.90;99.90;;;;;;5003358;28;20026;-70
2021/09/03 06:54:21;;;;;;;12.43;5.60;;;19.30;99.90;;;;;;5000276;28;20034;-70
2021/09/03 06:56:47;;;;;;;13.93;5.57;;;19.60;99.90;;;;;;5000278;28;20034;-69
2021/09/03 06:59:13;;;;;;;10.77;5.55;;;19.90;99.90;;;;;;5002766;28;20526;-70
2021/09/03 07:01:38;;;;;;;8.43;4.72;;;20.10;99.90;;;;;;5009385;28;20198;-69
2021/09/03 07:04:04;;;;;;;11.95;5.22;;;20.10;99.90;;;;;;5006735;28;20044;-70
2021/09/03 07:06:30;;;;;;;19.27;6.82;;;19.80;99.90;;;;;;5001591;28;20038;-69
2021/09/03 07:08:57;;;;;;;11.75;5.70;;;19.40;99.90;;;;;;4985792;28;20375;-70
2021/09/03 07:11:23;;;;;;;12.13;5.88;;;19.10;99.90;;;;;;5000359;28;20040;-69
2021/09/03 07:13:48;;;;;;;15.50;5.63;;;18.60;99.90;;;;;;5004310;28;20045;-69
2021/09/03 07:16:14;;;;;;;15.40;6.38;;;18.30;99.90;;;;;;5001060;28;20398;-70
2021/09/03 07:18:39;;;;;;;12.73;6.25;;;18.10;99.90;;;;;;5003609;28;20410;-69
2021/09/03 07:21:05;;;;;;;17.80;6.65;;;18.00;99.90;;;;;;5002581;28;20042;-70
2021/09/03 07:23:31;;;;;;;18.13;6.10;;;17.90;99.90;;;;;;5001433;28;20038;-70
2021/09/03 07:25:56;;;;;;;15.85;5.72;;;17.80;99.90;;;;;;5000992;28;20125;-69
2021/09/03 07:28:22;;;;;;;15.88;5.82;;;17.80;99.90;;;;;;4985902;28;20497;-69
2021/09/03 07:30:47;;;;;;;16.25;6.03;;;17.80;99.90;;;;;;4999857;28;20753;-69
2021/09/03 07:33:13;;;;;;;21.73;6.65;;;17.60;99.90;;;;;;5003205;28;20445;-70
2021/09/03 07:35:38;;;;;;;16.50;6.13;;;17.60;99.90;;;;;;5001516;28;20034;-70
2021/09/03 07:38:04;;;;;;;13.18;5.65;;;17.70;99.90;;;;;;5003949;28;20142;-70
2021/09/03 07:40:32;;;;;;;13.27;5.78;;;17.70;99.90;;;;;;5005650;28;20709;-70
2021/09/03 07:43:06;;;;;;;15.93;5.82;;;17.80;99.90;;;;;;5008634;28;20537;-70
2021/09/03 07:45:36;;;;;;;13.80;6.15;;;17.80;99.90;;;;;;5009949;28;20447;-70
2021/09/03 07:48:02;;;;;;;14.57;5.50;;;17.90;99.90;;;;;;5001366;28;20034;-69
2021/09/03 07:50:28;;;;;;;15.13;5.60;;;17.80;99.90;;;;;;5002053;28;20033;-70
2021/09/03 07:52:54;;;;;;;18.67;5.13;;;17.90;99.90;;;;;;5002284;28;20410;-69
2021/09/03 07:55:20;;;;;;;32.13;6.40;;;18.00;99.90;;;;;;4993731;28;20030;-71
2021/09/03 07:57:45;;;;;;;11.45;5.35;;;18.10;99.90;;;;;;4986065;28;20033;-69
2021/09/03 08:00:12;;;;;;;15.25;6.07;;;18.10;99.90;;;;;;5004066;28;20180;-70
2021/09/03 08:02:37;;;;;;;18.55;6.57;;;18.30;99.90;;;;;;4999368;28;20041;-70
2021/09/03 08:05:05;;;;;;;10.80;5.10;;;18.30;99.90;;;;;;4998499;28;20026;-69
2021/09/03 08:07:31;;;;;;;18.02;5.50;;;18.40;99.90;;;;;;4980204;28;20046;-70
2021/09/03 08:09:56;;;;;;;13.93;5.78;;;18.40;99.90;;;;;;5002142;28;20026;-69
2021/09/03 08:12:22;;;;;;;14.15;4.90;;;18.50;99.90;;;;;;5002523;28;20409;-69
2021/09/03 08:14:48;;;;;;;12.07;5.20;;;18.60;99.90;;;;;;5001116;28;20483;-70
2021/09/03 08:17:13;;;;;;;15.10;5.40;;;18.70;99.90;;;;;;5004052;28;20037;-70
2021/09/03 08:19:39;;;;;;;16.98;5.80;;;18.80;99.90;;;;;;5001893;28;20030;-70
2021/09/03 08:22:04;;;;;;;18.30;6.32;;;18.80;99.90;;;;;;5002539;28;20100;-69
2021/09/03 08:24:30;;;;;;;11.85;4.93;;;18.90;99.90;;;;;;5002430;28;20038;-70
2021/09/03 08:26:56;;;;;;;17.92;5.93;;;18.90;99.90;;;;;;5004802;28;20033;-70
2021/09/03 08:29:22;;;;;;;20.92;6.20;;;19.00;99.90;;;;;;5000972;28;20041;-69
2021/09/03 08:31:47;;;;;;;11.38;5.20;;;19.10;99.90;;;;;;5003851;28;20050;-70
2021/09/03 08:34:13;;;;;;;8.88;4.95;;;19.20;99.90;;;;;;4984714;28;20034;-69
2021/09/03 08:36:38;;;;;;;12.65;5.30;;;19.30;99.90;;;;;;5001671;28;20382;-70
2021/09/03 08:39:04;;;;;;;10.77;4.50;;;19.30;99.90;;;;;;4996921;28;20042;-70
2021/09/03 08:41:30;;;;;;;15.38;5.55;;;19.40;99.90;;;;;;5000273;28;20038;-69
2021/09/03 08:43:59;;;;;;;13.40;4.82;;;19.50;99.90;;;;;;4994273;28;20554;-69
2021/09/03 08:46:26;;;;;;;11.70;4.32;;;19.60;99.90;;;;;;4997681;28;20034;-70
2021/09/03 08:48:52;;;;;;;12.45;5.45;;;19.80;99.90;;;;;;4996273;28;20095;-70
2021/09/03 08:51:18;;;;;;;11.45;5.05;;;19.90;99.90;;;;;;5001453;28;20116;-69
2021/09/03 08:53:45;;;;;;;11.75;4.57;;;20.00;99.90;;;;;;4992966;28;20044;-69
2021/09/03 08:56:11;;;;;;;10.38;4.80;;;20.00;99.90;;;;;;4979529;28;20029;-70
2021/09/03 08:58:37;;;;;;;11.13;4.95;;;20.20;99.90;;;;;;5001250;28;20077;-69
2021/09/03 09:01:11;;;;;;;16.80;4.35;;;20.30;99.90;;;;;;5001964;28;20061;-69
2021/09/03 09:03:45;;;;;;;8.93;4.00;;;20.30;99.90;;;;;;5000892;28;20034;-69
2021/09/03 09:06:21;;;;;;;13.00;4.07;;;20.40;99.90;;;;;;4995071;28;20038;-70
2021/09/03 09:09:04;;;;;;;12.35;4.47;;;20.50;99.90;;;;;;4993175;28;20438;-70
2021/09/03 09:11:31;;;;;;;7.95;4.45;;;20.60;99.90;;;;;;4976466;28;20030;-70
2021/09/03 09:14:00;;;;;;;9.70;4.35;;;20.70;99.90;;;;;;4995259;28;20182;-69
2021/09/03 09:16:30;;;;;;;11.07;4.28;;;20.70;99.90;;;;;;4997416;28;20029;-69
2021/09/03 09:18:58;;;;;;;11.03;4.57;;;20.80;99.90;;;;;;4999184;28;20042;-70
2021/09/03 09:21:38;;;;;;;20.90;5.28;;;20.90;99.90;;;;;;4995364;28;20369;-70
2021/09/03 09:24:07;;;;;;;9.45;4.10;;;20.90;99.90;;;;;;4994505;28;20034;-69
2021/09/03 09:26:51;;;;;;;13.77;4.88;;;20.90;99.90;;;;;;5000136;28;20053;-69
2021/09/03 09:29:16;;;;;;;12.80;4.43;;;20.90;99.90;;;;;;4997301;28;20041;-69
2021/09/03 09:31:42;;;;;;;6.80;3.55;;;21.00;99.90;;;;;;4985385;28;20394;-69
2021/09/03 09:34:28;;;;;;;11.95;4.43;;;20.90;99.90;;;;;;4975969;28;20062;-70
2021/09/03 09:36:55;;;;;;;10.98;4.10;;;21.10;99.90;;;;;;4995238;28;20057;-70
2021/09/03 09:39:23;;;;;;;18.90;5.07;;;21.10;99.90;;;;;;4981924;28;20048;-69
2021/09/03 09:42:00;;;;;;;10.02;3.83;;;21.10;99.90;;;;;;4995910;28;20034;-70
2021/09/03 09:44:30;;;;;;;9.00;3.55;;;21.20;99.90;;;;;;4996271;28;20038;-69
2021/09/03 09:47:22;;;;;;;10.85;3.75;;;21.20;99.90;;;;;;4995770;28;20387;-69
2021/09/03 09:49:47;;;;;;;18.88;4.68;;;21.30;99.90;;;;;;4976514;28;20429;-70
2021/09/03 09:52:13;;;;;;;9.68;4.38;;;21.20;99.90;;;;;;4995100;28;20064;-69
2021/09/03 09:54:38;;;;;;;10.23;4.25;;;21.30;99.90;;;;;;4992529;28;20057;-70
2021/09/03 09:57:05;;;;;;;11.50;4.68;;;21.30;99.90;;;;;;4994747;28;20077;-70
2021/09/03 09:59:33;;;;;;;12.10;4.57;;;21.40;99.90;;;;;;4996243;28;20112;-70
2021/09/03 10:02:02;;;;;;;10.10;4.38;;;21.40;99.90;;;;;;4995411;28;20045;-70
2021/09/03 10:04:30;;;;;;;10.18;4.78;;;21.40;99.90;;;;;;4998433;28;20065;-70
2021/09/03 10:06:59;;;;;;;9.20;3.78;;;21.50;99.90;;;;;;4997767;28;20034;-70
2021/09/03 10:09:27;;;;;;;10.07;4.20;;;21.70;99.90;;;;;;4999313;28;20062;-70
2021/09/03 10:11:54;;;;;;;10.18;5.13;;;21.90;99.90;;;;;;4998641;28;20030;-70
2021/09/03 10:14:23;;;;;;;13.30;4.10;;;21.90;99.90;;;;;;4998565;28;20030;-70
2021/09/03 10:16:50;;;;;;;8.38;4.25;;;22.00;99.90;;;;;;4998749;28;20048;-70
2021/09/03 10:19:22;;;;;;;12.05;4.15;;;22.00;99.90;;;;;;4998407;28;20061;-70
2021/09/03 10:21:48;;;;;;;8.85;4.20;;;22.10;99.90;;;;;;4998964;28;20530;-70
2021/09/03 10:24:22;;;;;;;11.38;4.90;;;22.20;99.90;;;;;;4997742;28;20038;-69
2021/09/03 10:26:50;;;;;;;12.88;4.53;;;22.10;99.90;;;;;;5001734;28;20034;-70
2021/09/03 10:29:25;;;;;;;14.98;4.68;;;22.00;99.90;;;;;;5002180;28;20053;-70
2021/09/03 10:32:08;;;;;;;12.90;5.03;;;22.00;99.90;;;;;;5001621;28;20029;-70
2021/09/03 10:34:43;;;;;;;13.05;4.78;;;21.90;99.90;;;;;;4984511;28;20038;-69
2021/09/03 10:37:15;;;;;;;18.20;4.70;;;22.00;99.90;;;;;;4995047;28;20046;-70
2021/09/03 10:39:42;;;;;;;10.10;4.50;;;22.00;99.90;;;;;;5001398;28;20146;-69
2021/09/03 10:42:08;;;;;;;12.05;5.05;;;22.00;99.90;;;;;;4996461;28;21395;-69
2021/09/03 10:45:01;;;;;;;9.10;4.30;;;22.00;99.90;;;;;;4999850;28;20034;-70
2021/09/03 10:47:30;;;;;;;9.13;4.25;;;22.10;99.90;;;;;;5003562;28;20038;-69
2021/09/03 10:49:56;;;;;;;14.23;4.65;;;22.00;99.90;;;;;;5006943;28;20418;-69
2021/09/03 10:52:22;;;;;;;11.73;4.45;;;22.00;99.90;;;;;;5001956;28;20037;-69
2021/09/03 10:54:48;;;;;;;12.00;4.65;;;22.00;99.90;;;;;;5001890;28;20038;-69
2021/09/03 10:57:16;;;;;;;8.55;4.25;;;22.10;99.90;;;;;;4982481;28;20081;-69
2021/09/03 11:00:16;;;;;;;11.05;4.28;;;22.20;99.90;;;;;;5003146;28;20104;-69
2021/09/03 11:02:42;;;;;;;;;;;22.20;99.90;;;;;;5001458;28;20037;-69
2021/09/03 11:05:12;;;;;;;9.32;4.00;;;22.20;99.90;;;;;;5003775;28;20288;-69
2021/09/03 11:07:46;;;;;;;14.02;4.80;;;22.20;99.90;;;;;;4999816;28;20085;-69
2021/09/03 11:10:20;;;;;;;11.10;4.72;;;22.20;99.90;;;;;;5003072;28;20561;-69
2021/09/03 11:12:53;;;;;;;8.40;4.65;;;22.20;99.90;;;;;;5001239;28;20109;-69
2021/09/03 11:15:19;;;;;;;11.10;4.40;;;22.10;99.90;;;;;;5002146;28;20037;-69
2021/09/03 11:17:46;;;;;;;11.13;4.60;;;22.10;99.90;;;;;;5000700;28;20030;-69
2021/09/03 11:20:15;;;;;;;13.15;4.53;;;22.10;99.90;;;;;;4985117;28;20469;-69
2021/09/03 11:22:41;;;;;;;9.65;4.13;;;22.10;99.90;;;;;;5000135;28;20107;-69
2021/09/03 11:25:08;;;;;;;10.13;4.20;;;22.10;99.90;;;;;;5003201;28;20037;-68
2021/09/03 11:27:36;;;;;;;12.20;4.38;;;22.20;99.90;;;;;;4999264;28;20102;-70
2021/09/03 11:30:13;;;;;;;11.77;4.40;;;22.20;99.90;;;;;;4999645;28;20038;-69
2021/09/03 11:32:39;;;;;;;12.80;5.35;;;22.20;99.90;;;;;;4998606;28;20034;-69
2021/09/03 11:35:04;;;;;;;14.43;5.15;;;22.20;99.90;;;;;;5003571;28;20455;-69
2021/09/03 11:37:37;;;;;;;8.43;4.13;;;22.10;99.90;;;;;;4999073;28;20446;-70
2021/09/03 11:40:02;;;;;;;11.95;4.68;;;22.20;99.90;;;;;;5000772;28;20544;-69
2021/09/03 11:42:31;;;;;;;12.10;5.22;;;22.20;99.90;;;;;;5002379;28;20048;-70
2021/09/03 11:45:02;;;;;;;14.38;5.40;;;22.20;99.90;;;;;;4999738;28;20107;-69
2021/09/03 11:47:32;;;;;;;11.70;5.40;;;22.20;99.90;;;;;;4981519;28;20383;-70
2021/09/03 11:49:58;;;;;;;10.27;5.37;;;22.30;99.90;;;;;;5004267;28;20034;-68
2021/09/03 11:52:26;;;;;;;16.58;5.20;;;22.20;99.90;;;;;;5002129;28;20061;-69
2021/09/03 11:54:53;;;;;;;15.52;5.07;;;22.10;99.90;;;;;;4982466;28;20038;-69
2021/09/03 11:57:18;;;;;;;15.68;4.13;;;22.10;99.90;;;;;;4981635;28;20039;-69
2021/09/03 12:00:10;;;;;;;13.18;4.97;;;22.10;99.90;;;;;;5000622;28;20510;-70
2021/09/03 12:02:36;;;;;;;8.98;4.75;;;22.10;99.90;;;;;;4995035;28;20042;-69
2021/09/03 12:05:02;;;;;;;10.02;4.45;;;22.10;99.90;;;;;;5002308;28;20049;-69
2021/09/03 12:07:27;;;;;;;11.85;4.90;;;22.20;99.90;;;;;;4999315;28;20873;-69
2021/09/03 12:09:54;;;;;;;9.93;5.63;;;22.20;99.90;;;;;;5001569;28;20406;-69
2021/09/03 12:12:25;;;;;;;11.45;4.47;;;22.20;99.90;;;;;;4982773;28;20034;-69
2021/09/03 12:15:02;;;;;;;10.70;4.88;;;22.20;99.90;;;;;;5001073;28;20030;-72
2021/09/03 12:17:41;;;;;;;11.43;5.25;;;22.20;99.90;;;;;;4998791;28;20056;-69
2021/09/03 12:20:12;;;;;;;15.73;5.05;;;22.20;99.90;;;;;;4999245;28;20069;-70
2021/09/03 12:22:49;;;;;;;11.27;5.63;;;22.20;99.90;;;;;;5001652;28;20034;-69
2021/09/03 12:25:15;;;;;;;9.55;4.60;;;22.30;99.90;;;;;;4982803;28;20105;-69
2021/09/03 12:27:40;;;;;;;9.25;4.72;;;22.30;99.90;;;;;;5000747;28;20073;-69
2021/09/03 12:30:14;;;;;;;8.60;4.43;;;22.30;99.90;;;;;;4998941;28;20034;-69
2021/09/03 12:32:40;;;;;;;10.20;4.80;;;22.20;99.90;;;;;;5000962;28;20394;-69
2021/09/03 12:35:10;;;;;;;12.90;5.32;;;22.30;99.90;;;;;;4998798;28;20031;-69
2021/09/03 12:37:36;;;;;;;13.05;5.70;;;22.30;99.90;;;;;;5001350;28;20033;-69